Time;durP1;ratioP1;P1;durP2;ratioP2;P2;SDS_P1;SDS_P2;PMS_P1;PMS_P2;Temp;Humidity;BMP_temperature;BMP_pressure;BME280_temperature;BME280_humidity;BME280_pressure;Samples;Min_cycle;Max_cycle;Signal;HPM_P1;HPM_P2
2024/01/24 00:01:05;;;;;;;0.73;0.57;;;;;;;9.58;100.00;99805.22;5053031;28;20209;-77
2024/01/24 00:03:33;;;;;;;0.50;0.50;;;;;;;9.60;100.00;99793.00;5070494;28;20258;-77
2024/01/24 00:05:59;;;;;;;1.53;0.70;;;;;;;9.57;100.00;99805.25;5072332;28;20215;-77
2024/01/24 00:08:26;;;;;;;0.50;0.50;;;;;;;9.67;100.00;99799.78;5073006;28;20228;-77
2024/01/24 00:10:52;;;;;;;0.80;0.70;;;;;;;9.74;100.00;99795.25;5072386;28;20201;-77
2024/01/24 00:13:19;;;;;;;1.23;0.70;;;;;;;9.68;100.00;99769.34;5073812;28;20225;-77
2024/01/24 00:15:46;;;;;;;0.80;0.80;;;;;;;9.73;100.00;99738.78;5073052;28;20235;-77
2024/01/24 00:18:13;;;;;;;1.50;0.80;;;;;;;9.61;100.00;99736.50;5072396;28;20708;-77
2024/01/24 00:20:40;;;;;;;0.60;0.60;;;;;;;9.76;100.00;99719.63;5072005;28;20212;-77
2024/01/24 00:23:07;;;;;;;0.97;0.90;;;;;;;9.66;100.00;99706.84;5071965;28;20229;-77
2024/01/24 00:25:33;;;;;;;1.40;1.03;;;;;;;9.79;100.00;99707.38;5072676;28;20209;-77
2024/01/24 00:27:59;;;;;;;0.70;0.70;;;;;;;9.61;100.00;99720.88;5072238;28;20262;-77
2024/01/24 00:30:26;;;;;;;1.40;0.70;;;;;;;9.73;100.00;99710.13;5071994;28;20204;-77
2024/01/24 00:32:52;;;;;;;2.00;0.73;;;;;;;9.60;100.00;99717.44;5072362;28;20258;-77
2024/01/24 00:35:18;;;;;;;1.27;0.80;;;;;;;9.82;100.00;99720.31;5071823;28;20254;-77
2024/01/24 00:37:46;;;;;;;0.63;0.63;;;;;;;9.82;100.00;99709.88;5089091;28;20204;-77
2024/01/24 00:40:13;;;;;;;0.70;0.70;;;;;;;9.91;100.00;99713.97;5091966;28;20223;-77
2024/01/24 00:42:42;;;;;;;0.60;0.60;;;;;;;9.89;100.00;99695.78;5092472;28;20271;-77
2024/01/24 00:45:09;;;;;;;1.17;0.57;;;;;;;9.90;100.00;99701.84;5092263;28;20234;-77
2024/01/24 00:47:35;;;;;;;0.80;0.80;;;;;;;10.00;100.00;99713.72;5091343;28;20678;-77
2024/01/24 00:50:04;;;;;;;0.60;0.60;;;;;;;9.91;100.00;99690.50;5092081;28;20940;-77
2024/01/24 00:52:30;;;;;;;2.73;0.80;;;;;;;9.97;100.00;99661.69;5092319;28;20219;-77
2024/01/24 00:54:58;;;;;;;0.67;0.60;;;;;;;10.03;100.00;99639.78;5092843;28;20250;-77
2024/01/24 00:57:24;;;;;;;0.70;0.70;;;;;;;10.05;100.00;99637.97;5092968;28;20204;-77
2024/01/24 00:59:51;;;;;;;0.70;0.70;;;;;;;10.02;100.00;99635.47;5094427;28;20787;-77
2024/01/24 01:02:17;;;;;;;0.80;0.80;;;;;;;10.08;100.00;99651.78;5099637;28;20703;-76
2024/01/24 01:04:44;;;;;;;0.60;0.60;;;;;;;10.13;100.00;99662.09;5082340;28;20202;-77
2024/01/24 01:07:10;;;;;;;0.60;0.60;;;;;;;10.21;100.00;99646.19;5081733;28;20269;-78
2024/01/24 01:09:37;;;;;;;0.77;0.77;;;;;;;10.26;100.00;99646.91;5073872;28;20208;-77
2024/01/24 01:12:05;;;;;;;1.00;0.77;;;;;;;10.32;100.00;99670.22;5071875;28;20303;-77
2024/01/24 01:14:31;;;;;;;1.03;0.60;;;;;;;10.32;100.00;99659.81;5072122;28;20197;-77
2024/01/24 01:16:58;;;;;;;1.37;0.80;;;;;;;10.30;100.00;99653.78;5071703;28;20250;-77
2024/01/24 01:19:24;;;;;;;1.20;0.70;;;;;;;10.53;100.00;99661.75;5071616;28;20278;-77
2024/01/24 01:21:50;;;;;;;1.33;1.00;;;;;;;10.40;100.00;99688.25;5071643;28;20204;-77
2024/01/24 01:24:17;;;;;;;1.77;0.50;;;;;;;10.65;100.00;99717.09;5072345;28;20217;-77
2024/01/24 01:26:43;;;;;;;1.33;1.10;;;;;;;10.62;100.00;99723.22;5072031;28;20278;-77
2024/01/24 01:29:10;;;;;;;1.73;0.70;;;;;;;10.52;100.00;99740.06;5071468;28;20679;-77
2024/01/24 01:31:37;;;;;;;0.93;0.60;;;;;;;10.67;100.00;99718.72;5071797;28;20262;-77
2024/01/24 01:34:04;;;;;;;0.97;0.50;;;;;;;10.78;100.00;99712.31;5071761;28;20213;-77
2024/01/24 01:36:30;;;;;;;1.83;0.87;;;;;;;10.88;100.00;99732.00;5071469;28;20208;-77
2024/01/24 01:38:56;;;;;;;1.23;0.83;;;;;;;11.00;100.00;99715.97;5071252;28;20278;-77
2024/01/24 01:41:24;;;;;;;0.77;0.70;;;;;;;11.04;100.00;99746.31;5071402;28;20288;-77
2024/01/24 01:43:50;;;;;;;0.60;0.60;;;;;;;11.06;100.00;99747.13;5071124;28;20227;-77
2024/01/24 01:46:19;;;;;;;0.57;0.50;;;;;;;11.12;100.00;99736.47;5071346;28;20212;-77
2024/01/24 01:48:45;;;;;;;0.50;0.40;;;;;;;11.20;100.00;99741.44;5071107;28;20309;-77
2024/01/24 01:51:13;;;;;;;1.17;1.07;;;;;;;11.16;100.00;99736.34;5070901;28;20253;-77
2024/01/24 01:53:39;;;;;;;1.03;0.83;;;;;;;11.10;100.00;99706.94;5071075;28;20226;-76
2024/01/24 01:56:08;;;;;;;0.63;0.63;;;;;;;11.09;100.00;99665.19;5071011;28;20628;-77
2024/01/24 01:58:36;;;;;;;1.23;0.60;;;;;;;11.17;100.00;99639.66;5073564;28;20262;-76
2024/01/24 02:01:03;;;;;;;1.23;0.90;;;;;;;11.26;100.00;99673.31;5074823;28;20207;-77
2024/01/24 02:03:31;;;;;;;2.03;0.80;;;;;;;11.12;100.00;99660.72;5074779;28;20277;-76
2024/01/24 02:05:57;;;;;;;1.50;0.90;;;;;;;11.22;100.00;99650.81;5074478;28;20205;-76
2024/01/24 02:08:23;;;;;;;0.60;0.60;;;;;;;10.98;100.00;99639.44;5074636;28;20271;-76
2024/01/24 02:10:50;;;;;;;0.60;0.60;;;;;;;11.21;100.00;99627.34;5074623;28;20204;-77
2024/01/24 02:13:16;;;;;;;0.60;0.60;;;;;;;11.30;100.00;99630.50;5074490;28;20295;-77
2024/01/24 02:15:43;;;;;;;1.77;0.90;;;;;;;11.12;100.00;99608.47;5074518;28;20201;-77
2024/01/24 02:18:09;;;;;;;1.73;0.93;;;;;;;11.24;100.00;99594.13;5075012;28;20732;-77
2024/01/24 02:20:37;;;;;;;0.67;0.60;;;;;;;11.29;100.00;99607.03;5074629;28;20708;-77
2024/01/24 02:23:04;;;;;;;1.20;0.77;;;;;;;11.31;100.00;99597.38;5074902;28;20237;-77
2024/01/24 02:25:32;;;;;;;0.87;0.67;;;;;;;11.11;100.00;99585.03;5075088;28;20266;-77
2024/01/24 02:27:58;;;;;;;1.13;0.50;;;;;;;10.98;100.00;99573.28;5075632;28;20201;-77
2024/01/24 02:30:24;;;;;;;1.27;0.60;;;;;;;11.22;100.00;99538.47;5075067;28;20204;-77
2024/01/24 02:32:51;;;;;;;1.73;0.80;;;;;;;11.28;100.00;99556.53;5074804;28;20268;-77
2024/01/24 02:35:17;;;;;;;0.93;0.70;;;;;;;11.24;100.00;99547.13;5075063;28;20231;-77
2024/01/24 02:37:44;;;;;;;1.40;0.80;;;;;;;11.14;100.00;99566.63;5074781;28;20675;-77
2024/01/24 02:40:10;;;;;;;0.97;0.70;;;;;;;11.33;100.00;99538.91;5074305;28;20647;-76
2024/01/24 02:42:38;;;;;;;0.87;0.87;;;;;;;11.39;100.00;99557.91;5074318;28;20225;-77
2024/01/24 02:45:06;;;;;;;1.70;0.70;;;;;;;11.44;100.00;99545.53;5075111;28;20205;-77
2024/01/24 02:47:32;;;;;;;1.50;1.07;;;;;;;11.33;100.00;99543.31;5074547;28;20210;-77
2024/01/24 02:50:01;;;;;;;0.80;0.80;;;;;;;11.49;100.00;99526.13;5074434;28;20243;-77
2024/01/24 02:52:28;;;;;;;0.90;0.90;;;;;;;11.45;100.00;99513.25;5074745;28;20319;-77
2024/01/24 02:54:54;;;;;;;1.30;0.97;;;;;;;11.46;100.00;99514.97;5074500;28;20201;-77
2024/01/24 02:57:20;;;;;;;1.10;1.00;;;;;;;11.46;100.00;99497.53;5075026;28;20201;-77
2024/01/24 02:59:48;;;;;;;0.70;0.70;;;;;;;11.48;100.00;99505.31;5074593;28;20217;-77
2024/01/24 03:02:15;;;;;;;1.37;1.00;;;;;;;11.32;100.00;99508.50;5074422;28;20229;-77
2024/01/24 03:04:41;;;;;;;1.47;0.90;;;;;;;11.48;100.00;99497.47;5074477;28;20279;-77
2024/01/24 03:07:07;;;;;;;2.47;1.20;;;;;;;11.47;100.00;99486.16;5074263;28;20208;-77
2024/01/24 03:09:34;;;;;;;1.43;1.13;;;;;;;11.55;100.00;99482.41;5073648;28;20205;-77
2024/01/24 03:12:00;;;;;;;1.20;1.10;;;;;;;11.56;100.00;99499.81;5074542;28;20229;-77
2024/01/24 03:14:26;;;;;;;0.90;0.90;;;;;;;11.42;100.00;99489.88;5074037;28;20212;-76
2024/01/24 03:16:54;;;;;;;0.80;0.80;;;;;;;11.56;100.00;99484.97;5074326;28;20707;-77
2024/01/24 03:19:20;;;;;;;2.13;1.00;;;;;;;11.59;100.00;99479.59;5074292;28;20227;-77
2024/01/24 03:21:47;;;;;;;0.80;0.80;;;;;;;11.57;100.00;99481.41;5073753;28;20255;-77
2024/01/24 03:24:13;;;;;;;1.53;1.00;;;;;;;11.76;100.00;99471.13;5074190;28;20209;-77
2024/01/24 03:26:40;;;;;;;0.90;0.77;;;;;;;11.79;100.00;99483.22;5074458;28;20201;-77
2024/01/24 03:29:06;;;;;;;1.33;1.17;;;;;;;11.74;100.00;99462.47;5073961;28;20208;-76
2024/01/24 03:31:33;;;;;;;1.13;1.10;;;;;;;11.73;100.00;99453.78;5073607;28;20676;-77
2024/01/24 03:34:01;;;;;;;1.13;1.03;;;;;;;11.83;100.00;99471.72;5073590;28;20293;-77
2024/01/24 03:36:27;;;;;;;1.20;1.10;;;;;;;11.90;100.00;99471.44;5073682;28;20203;-77
2024/01/24 03:38:53;;;;;;;0.83;0.83;;;;;;;11.68;100.00;99467.97;5073979;28;20220;-77
2024/01/24 03:41:20;;;;;;;1.03;1.03;;;;;;;11.90;100.00;99458.38;5073069;28;20205;-76
2024/01/24 03:43:48;;;;;;;1.07;1.00;;;;;;;11.90;100.00;99463.59;5072926;28;20233;-77
2024/01/24 03:46:14;;;;;;;1.50;1.00;;;;;;;11.84;100.00;99463.81;5073273;28;20200;-77
2024/01/24 03:48:40;;;;;;;0.90;0.90;;;;;;;11.84;100.00;99442.06;5073682;28;20210;-77
2024/01/24 03:51:09;;;;;;;0.70;0.70;;;;;;;11.76;100.00;99421.44;5073455;28;20218;-77
2024/01/24 03:53:35;;;;;;;0.87;0.87;;;;;;;11.92;100.00;99414.69;5073536;28;20308;-77
2024/01/24 03:56:02;;;;;;;2.33;2.23;;;;;;;12.05;100.00;99427.25;5073182;28;20227;-77
2024/01/24 03:58:28;;;;;;;1.30;1.20;;;;;;;12.21;100.00;99441.44;5074259;28;20201;-77
2024/01/24 04:00:55;;;;;;;1.40;1.30;;;;;;;12.04;100.00;99434.28;5073167;28;20643;-77
2024/01/24 04:03:22;;;;;;;1.40;1.30;;;;;;;12.27;100.00;99451.63;5073418;28;20226;-76
2024/01/24 04:05:48;;;;;;;1.90;1.80;;;;;;;12.42;100.00;99478.06;5073096;28;20581;-77
2024/01/24 04:08:16;;;;;;;1.60;1.50;;;;;;;12.54;100.00;99474.09;5073417;28;20672;-77
2024/01/24 04:10:42;;;;;;;1.93;1.60;;;;;;;12.59;100.00;99535.81;5072846;28;20669;-76
2024/01/24 04:13:08;;;;;;;2.50;2.30;;;;;;;12.68;100.00;99518.84;5072678;28;20787;-77
2024/01/24 04:15:35;;;;;;;1.63;1.53;;;;;;;12.63;100.00;99544.41;5074638;28;20636;-77
2024/01/24 04:18:01;;;;;;;1.97;1.87;;;;;;;12.76;100.00;99563.88;5074244;28;20204;-78
2024/01/24 04:20:28;;;;;;;2.30;1.80;;;;;;;12.84;100.00;99597.63;5073079;28;20227;-77
2024/01/24 04:22:55;;;;;;;1.87;1.70;;;;;;;12.81;100.00;99593.38;5073146;28;20233;-77
2024/01/24 04:25:22;;;;;;;1.90;1.80;;;;;;;12.95;100.00;99620.75;5073071;28;20672;-77
2024/01/24 04:27:49;;;;;;;4.27;2.30;;;;;;;12.68;100.00;99587.78;5072928;28;20202;-77
2024/01/24 04:30:15;;;;;;;1.90;1.80;;;;;;;12.64;100.00;99541.69;5072559;28;20204;-77
2024/01/24 04:32:42;;;;;;;3.43;1.57;;;;;;;12.75;100.00;99585.78;5072270;28;20334;-78
2024/01/24 04:35:08;;;;;;;2.27;2.03;;;;;;;12.84;100.00;99621.19;5073133;28;20257;-76
2024/01/24 04:37:35;;;;;;;2.70;2.00;;;;;;;12.85;100.00;99662.19;5073249;28;20205;-77
2024/01/24 04:40:02;;;;;;;2.70;2.43;;;;;;;12.76;100.00;99623.28;5072749;28;20632;-78
2024/01/24 04:42:29;;;;;;;1.77;1.50;;;;;;;12.78;100.00;99583.00;5072663;28;20283;-77
2024/01/24 04:44:56;;;;;;;3.03;1.83;;;;;;;12.57;100.00;99565.59;5073300;28;20210;-78
2024/01/24 04:47:22;;;;;;;1.77;1.57;;;;;;;12.49;100.00;99509.16;5073051;28;20208;-77
2024/01/24 04:49:48;;;;;;;2.70;1.70;;;;;;;12.64;100.00;99531.22;5073467;28;20208;-77
2024/01/24 04:52:15;;;;;;;1.50;1.40;;;;;;;12.64;100.00;99541.69;5073457;28;20221;-78
2024/01/24 04:54:42;;;;;;;1.50;1.30;;;;;;;12.75;100.00;99577.06;5072751;28;20201;-77
2024/01/24 04:57:08;;;;;;;2.40;2.10;;;;;;;12.79;100.00;99576.88;5072342;28;20207;-77
2024/01/24 04:59:36;;;;;;;3.63;2.03;;;;;;;12.68;100.00;99560.75;5072393;28;20672;-77
2024/01/24 05:02:04;;;;;;;1.77;1.53;;;;;;;12.49;100.00;99516.19;5072902;28;20705;-78
2024/01/24 05:04:30;;;;;;;1.63;1.30;;;;;;;12.51;100.00;99490.78;5073227;28;20593;-78
2024/01/24 05:06:57;;;;;;;1.73;1.30;;;;;;;12.50;100.00;99504.78;5073059;28;20675;-77
2024/01/24 05:09:23;;;;;;;2.70;1.50;;;;;;;12.50;100.00;99523.09;5072606;28;20690;-77
2024/01/24 05:11:49;;;;;;;1.27;1.17;;;;;;;12.43;100.00;99500.72;5072533;28;20679;-78
2024/01/24 05:14:16;;;;;;;1.70;1.50;;;;;;;12.38;100.00;99498.28;5072918;28;20209;-77
2024/01/24 05:16:43;;;;;;;3.10;1.10;;;;;;;12.40;100.00;99521.78;5072989;28;20212;-77
2024/01/24 05:19:10;;;;;;;0.90;0.90;;;;;;;12.37;100.00;99542.81;5072712;28;20212;-77
2024/01/24 05:21:41;;;;;;;1.03;1.00;;;;;;;12.30;100.00;99569.25;5072732;28;20278;-77
2024/01/24 05:24:08;;;;;;;1.20;1.10;;;;;;;12.39;100.00;99583.75;5072943;28;20204;-78
2024/01/24 05:26:35;;;;;;;0.90;0.90;;;;;;;12.36;100.00;99598.72;5072590;28;20207;-77
2024/01/24 05:29:01;;;;;;;1.53;0.90;;;;;;;12.30;100.00;99594.56;5072333;28;20262;-78
2024/01/24 05:31:28;;;;;;;1.50;1.03;;;;;;;12.20;100.00;99601.09;5072587;28;20205;-77
2024/01/24 05:33:56;;;;;;;2.90;1.30;;;;;;;12.10;100.00;99574.44;5076098;28;20218;-78
2024/01/24 05:36:23;;;;;;;2.03;1.60;;;;;;;11.98;100.00;99549.59;5079108;28;20258;-78
2024/01/24 05:38:49;;;;;;;1.33;1.20;;;;;;;11.85;100.00;99525.69;5076904;28;20204;-77
2024/01/24 05:41:15;;;;;;;1.40;1.30;;;;;;;12.12;100.00;99546.44;5077191;28;20247;-78
2024/01/24 05:43:42;;;;;;;1.50;1.27;;;;;;;12.01;100.00;99577.41;5077121;28;20232;-78
2024/01/24 05:46:08;;;;;;;1.00;1.00;;;;;;;11.94;100.00;99625.63;5077181;28;20214;-78
2024/01/24 05:48:34;;;;;;;0.80;0.80;;;;;;;12.07;100.00;99676.56;5077317;28;20215;-78
2024/01/24 05:51:02;;;;;;;0.90;0.90;;;;;;;12.12;100.00;99692.94;5076681;28;20227;-77
2024/01/24 05:53:29;;;;;;;1.73;0.83;;;;;;;12.01;100.00;99706.44;5076487;28;20225;-77
2024/01/24 05:55:55;;;;;;;1.13;0.70;;;;;;;11.98;100.00;99730.06;5076659;28;20205;-77
2024/01/24 05:58:21;;;;;;;0.60;0.60;;;;;;;12.19;97.07;99809.56;5076451;28;20208;-78
2024/01/24 06:00:48;;;;;;;0.63;0.50;;;;;;;12.15;96.79;99857.66;5076050;28;20228;-77
2024/01/24 06:03:14;;;;;;;1.67;0.50;;;;;;;12.27;95.99;99864.25;5077427;28;20225;-78
2024/01/24 06:05:40;;;;;;;5.83;1.33;;;;;;;12.17;94.30;99921.25;5075913;28;20250;-77
2024/01/24 06:08:08;;;;;;;1.30;0.67;;;;;;;12.27;92.38;99961.06;5075820;28;20206;-78
2024/01/24 06:10:34;;;;;;;0.73;0.50;;;;;;;12.36;91.26;100020.94;5075140;28;20652;-77
2024/01/24 06:13:01;;;;;;;1.33;0.70;;;;;;;12.42;90.80;100025.13;5075293;28;20278;-77
2024/01/24 06:15:27;;;;;;;1.67;0.60;;;;;;;12.00;89.81;100018.59;5075932;28;20200;-77
2024/01/24 06:17:53;;;;;;;1.83;1.30;;;;;;;12.14;88.98;100039.09;5080791;28;20213;-77
2024/01/24 06:20:20;;;;;;;3.00;0.90;;;;;;;12.00;88.41;100057.84;5084519;28;20284;-77
2024/01/24 06:22:46;;;;;;;3.53;1.13;;;;;;;11.89;88.26;100070.38;5084403;28;20278;-77
2024/01/24 06:25:14;;;;;;;2.07;1.00;;;;;;;11.94;88.39;100063.25;5082414;28;20268;-77
2024/01/24 06:27:41;;;;;;;4.63;0.80;;;;;;;11.93;86.06;100108.63;5071959;28;20670;-77
2024/01/24 06:30:10;;;;;;;1.73;0.87;;;;;;;11.79;86.82;100132.53;5074995;28;20295;-77
2024/01/24 06:32:36;;;;;;;2.37;0.90;;;;;;;11.76;86.91;100155.31;5075243;28;20225;-77
2024/01/24 06:35:03;;;;;;;3.93;1.47;;;;;;;11.71;85.86;100171.13;5075658;28;20200;-77
2024/01/24 06:37:29;;;;;;;2.00;0.90;;;;;;;11.71;84.03;100203.38;5074681;28;20258;-77
2024/01/24 06:39:56;;;;;;;4.83;1.30;;;;;;;11.89;84.91;100204.66;5074582;28;20535;-77
2024/01/24 06:42:23;;;;;;;3.33;1.17;;;;;;;11.78;84.21;100211.91;5074954;28;20710;-77
2024/01/24 06:44:50;;;;;;;4.20;2.00;;;;;;;11.77;83.32;100236.31;5073781;28;20209;-77
2024/01/24 06:47:16;;;;;;;3.90;1.33;;;;;;;11.56;82.96;100273.50;5074766;28;20582;-77
2024/01/24 06:49:42;;;;;;;3.37;1.30;;;;;;;11.66;82.16;100275.84;5074691;28;20621;-77
2024/01/24 06:52:09;;;;;;;4.07;1.13;;;;;;;11.61;81.95;100305.59;5074662;28;20288;-76
2024/01/24 06:54:36;;;;;;;5.10;1.90;;;;;;;11.69;79.46;100345.47;5074337;28;20201;-77
2024/01/24 06:57:03;;;;;;;6.97;2.23;;;;;;;11.68;78.76;100385.63;5074691;28;20201;-77
2024/01/24 06:59:31;;;;;;;8.93;1.67;;;;;;;11.58;73.96;100452.09;5074335;28;20207;-77
2024/01/24 07:01:58;;;;;;;3.40;1.43;;;;;;;11.57;73.75;100527.03;5074248;28;20674;-77
2024/01/24 07:04:25;;;;;;;9.57;2.03;;;;;;;11.44;73.78;100562.19;5074218;28;20696;-77
2024/01/24 07:06:51;;;;;;;5.00;1.80;;;;;;;11.38;74.17;100565.78;5074180;28;20201;-76
2024/01/24 07:09:18;;;;;;;6.23;2.13;;;;;;;11.22;74.63;100561.72;5074175;28;20208;-77
2024/01/24 07:11:44;;;;;;;8.50;2.33;;;;;;;11.22;75.39;100551.28;5076232;28;20200;-76
2024/01/24 07:14:10;;;;;;;7.87;2.10;;;;;;;11.30;76.35;100544.19;5094175;28;20201;-77
2024/01/24 07:16:38;;;;;;;6.90;1.97;;;;;;;11.45;74.86;100533.38;5094246;28;20256;-76
2024/01/24 07:19:05;;;;;;;11.80;3.07;;;;;;;11.24;72.80;100604.41;5094401;28;20204;-76
2024/01/24 07:21:31;;;;;;;8.17;2.30;;;;;;;11.24;72.14;100644.44;5093984;28;20220;-76
2024/01/24 07:23:57;;;;;;;10.70;2.80;;;;;;;11.27;72.13;100682.72;5093919;28;20243;-76
2024/01/24 07:26:24;;;;;;;14.00;3.13;;;;;;;11.53;69.51;100680.50;5093777;28;20204;-77
2024/01/24 07:28:50;;;;;;;8.10;2.57;;;;;;;11.55;69.51;100716.19;5075467;28;20201;-78
2024/01/24 07:31:17;;;;;;;7.67;2.53;;;;;;;11.79;69.38;100769.78;5076776;28;20264;-78
2024/01/24 07:33:45;;;;;;;13.17;2.67;;;;;;;11.58;68.82;100779.75;5075379;28;20600;-79
2024/01/24 07:36:12;;;;;;;10.37;3.70;;;;;;;11.49;68.30;100782.53;5086863;28;20747;-78
2024/01/24 07:38:38;;;;;;;8.20;2.60;;;;;;;11.57;67.44;100812.00;5094646;28;20222;-77
2024/01/24 07:41:07;;;;;;;13.50;3.40;;;;;;;11.61;68.53;100813.69;5092872;28;20301;-76
2024/01/24 07:43:34;;;;;;;7.83;3.50;;;;;;;11.47;67.65;100870.56;5093811;28;20218;-78
2024/01/24 07:46:01;;;;;;;14.73;3.90;;;;;;;11.47;70.16;100841.81;5093471;28;20234;-78
2024/01/24 07:48:29;;;;;;;10.57;3.57;;;;;;;11.08;72.10;100795.38;5093239;28;20262;-79
2024/01/24 07:50:57;;;;;;;8.93;2.90;;;;;;;11.21;71.65;100761.22;5097203;28;20281;-78
2024/01/24 07:53:23;;;;;;;12.90;3.20;;;;;;;11.27;71.79;100759.34;5099413;28;20601;-78
2024/01/24 07:55:50;;;;;;;14.03;3.97;;;;;;;11.09;72.45;100750.06;5093240;28;20597;-77
2024/01/24 07:58:16;;;;;;;11.17;3.10;;;;;;;11.18;70.70;100758.66;5081176;28;20270;-78
2024/01/24 08:00:43;;;;;;;9.07;2.97;;;;;;;11.26;70.84;100757.66;5072922;28;20831;-79
2024/01/24 08:03:09;;;;;;;14.67;4.43;;;;;;;11.56;70.15;100788.53;5072995;28;20585;-78
2024/01/24 08:05:35;;;;;;;10.27;2.90;;;;;;;11.22;71.36;100796.91;5072790;28;20745;-77
2024/01/24 08:08:03;;;;;;;10.27;2.60;;;;;;;11.18;74.05;100776.94;5072733;28;20208;-76
2024/01/24 08:10:30;;;;;;;11.47;3.60;;;;;;;11.14;76.27;100695.16;5072956;28;20204;-76
2024/01/24 08:12:56;;;;;;;14.73;4.33;;;;;;;10.98;76.65;100663.22;5072933;28;20225;-78
2024/01/24 08:15:23;;;;;;;12.00;3.83;;;;;;;11.06;76.41;100614.28;5072130;28;20296;-77
2024/01/24 08:17:49;;;;;;;10.30;3.23;;;;;;;10.78;75.84;100623.47;5072289;28;20201;-77
2024/01/24 08:20:19;;;;;;;7.57;3.37;;;;;;;10.90;74.27;100623.28;5074387;28;20201;-79
2024/01/24 08:22:45;;;;;;;14.37;3.00;;;;;;;11.10;73.78;100655.16;5072906;28;20321;-76
2024/01/24 08:25:13;;;;;;;11.97;3.00;;;;;;;11.29;72.96;100683.56;5070814;28;20210;-78
2024/01/24 08:27:39;;;;;;;10.80;3.33;;;;;;;11.12;73.77;100676.03;5072015;28;20269;-77
2024/01/24 08:30:07;;;;;;;9.10;2.73;;;;;;;11.03;71.54;100715.34;5072383;28;20226;-77
2024/01/24 08:32:33;;;;;;;10.97;3.57;;;;;;;11.14;71.50;100752.63;5072979;28;20221;-77
2024/01/24 08:35:00;;;;;;;16.53;3.43;;;;;;;11.20;71.64;100768.22;5073024;28;20208;-78
2024/01/24 08:37:26;;;;;;;14.43;4.23;;;;;;;11.01;71.72;100798.97;5072732;28;20204;-77
2024/01/24 08:39:52;;;;;;;10.80;3.87;;;;;;;11.14;70.16;100797.03;5072023;28;20705;-78
2024/01/24 08:42:19;;;;;;;10.07;3.70;;;;;;;11.34;70.18;100807.19;5072263;28;20228;-79
2024/01/24 08:44:46;;;;;;;15.67;3.90;;;;;;;11.17;69.67;100833.56;5073928;28;20288;-79
2024/01/24 08:47:12;;;;;;;20.43;4.20;;;;;;;11.25;69.33;100851.75;5073840;28;20642;-78
2024/01/24 08:49:38;;;;;;;15.57;3.33;;;;;;;11.38;68.98;100871.59;5071889;28;20567;-76
2024/01/24 08:52:05;;;;;;;9.13;3.00;;;;;;;11.30;67.36;100904.81;5071749;28;20217;-76
2024/01/24 08:54:32;;;;;;;13.17;3.43;;;;;;;11.48;68.64;100914.13;5071824;28;20208;-77
2024/01/24 08:56:58;;;;;;;12.97;3.37;;;;;;;11.31;68.40;100957.03;5071838;28;20205;-76
2024/01/24 08:59:26;;;;;;;11.23;4.07;;;;;;;11.32;69.55;100934.41;5070797;28;20254;-76
2024/01/24 09:01:55;;;;;;;11.97;3.57;;;;;;;11.27;70.13;100897.00;5062657;28;20216;-76
2024/01/24 09:04:21;;;;;;;14.07;3.80;;;;;;;11.38;69.94;100918.63;5060350;28;20208;-76
2024/01/24 09:06:48;;;;;;;12.87;3.47;;;;;;;11.28;69.20;100899.59;5059642;28;20240;-76
2024/01/24 09:09:15;;;;;;;7.10;2.93;;;;;;;11.27;67.15;100937.06;5058433;28;20287;-77
2024/01/24 09:11:41;;;;;;;11.67;3.63;;;;;;;11.33;67.66;100973.56;5051412;28;20210;-76
2024/01/24 09:14:08;;;;;;;16.97;4.10;;;;;;;11.46;68.95;100948.13;5051403;28;20213;-76
2024/01/24 09:16:35;;;;;;;15.10;3.20;;;;;;;11.36;68.72;100962.22;5052036;28;20209;-78
2024/01/24 09:19:02;;;;;;;9.17;3.10;;;;;;;11.40;68.48;100960.44;5051699;28;20209;-76
2024/01/24 09:21:28;;;;;;;12.03;3.73;;;;;;;11.38;69.57;100925.59;5051358;28;20298;-77
2024/01/24 09:23:54;;;;;;;12.37;3.90;;;;;;;11.42;68.82;100929.91;5067863;28;20230;-77
2024/01/24 09:26:21;;;;;;;11.65;3.65;;;;;;;11.32;68.81;100939.63;5068924;28;20422;-77
2024/01/24 09:28:47;;;;;;;12.30;3.70;;;;;;;11.34;68.40;100950.94;5069191;28;20200;-77
2024/01/24 09:31:14;;;;;;;11.90;4.30;;;;;;;11.56;68.60;100942.78;5069442;28;20199;-77
2024/01/24 09:33:41;;;;;;;13.40;3.03;;;;;;;11.27;69.42;100954.50;5069810;28;20237;-78
2024/01/24 09:36:08;;;;;;;11.93;3.37;;;;;;;11.28;68.47;100940.56;5069746;28;20204;-77
2024/01/24 09:38:34;;;;;;;15.13;4.30;;;;;;;11.31;71.40;100948.34;5069578;28;20204;-77
2024/01/24 09:41:07;;;;;;;14.17;3.47;;;;;;;11.03;74.95;100848.59;5070284;28;20254;-77
2024/01/24 09:43:39;;;;;;;9.97;3.50;;;;;;;10.94;74.57;100789.47;5071281;28;20649;-76
2024/01/24 09:46:13;;;;;;;16.10;3.83;;;;;;;10.90;72.32;100822.66;5071583;28;20210;-76
2024/01/24 09:48:42;;;;;;;13.90;3.40;;;;;;;10.89;72.87;100817.44;5071313;28;20745;-76
2024/01/24 09:51:09;;;;;;;11.67;3.93;;;;;;;11.06;72.18;100817.16;5071119;28;20201;-77
2024/01/24 09:53:39;;;;;;;16.23;4.67;;;;;;;10.99;71.41;100831.22;5071277;28;20221;-76
2024/01/24 09:56:07;;;;;;;18.10;3.83;;;;;;;11.13;71.91;100821.44;5071521;28;20209;-77
2024/01/24 09:58:33;;;;;;;15.40;3.90;;;;;;;11.01;70.61;100866.88;5071170;28;20625;-77
2024/01/24 10:01:03;;;;;;;12.30;3.63;;;;;;;11.13;71.79;100855.41;5070959;28;20270;-78
2024/01/24 10:03:31;;;;;;;11.53;4.73;;;;;;;11.01;72.04;100845.97;5071021;28;20600;-77
2024/01/24 10:06:00;;;;;;;15.70;3.33;;;;;;;10.88;71.95;100862.69;5071138;28;20239;-77
2024/01/24 10:08:27;;;;;;;10.10;3.53;;;;;;;10.86;70.83;100887.97;5071111;28;20208;-76
2024/01/24 10:10:53;;;;;;;9.33;3.13;;;;;;;10.88;69.47;100910.59;5071114;28;20205;-76
2024/01/24 10:13:20;;;;;;;11.47;4.10;;;;;;;11.06;68.52;100937.34;5071230;28;20224;-78
2024/01/24 10:15:46;;;;;;;15.40;4.07;;;;;;;10.96;68.28;100965.38;5071342;28;20278;-76
2024/01/24 10:18:12;;;;;;;14.10;3.93;;;;;;;11.08;67.66;100978.28;5071561;28;20624;-78
2024/01/24 10:20:41;;;;;;;13.40;3.90;;;;;;;11.10;68.04;100976.50;5074238;28;20208;-76
2024/01/24 10:23:10;;;;;;;15.27;4.10;;;;;;;11.21;67.39;101001.63;5074294;28;20646;-77
2024/01/24 10:25:41;;;;;;;8.33;3.20;;;;;;;11.37;66.90;101013.59;5074728;28;20211;-76
2024/01/24 10:28:12;;;;;;;10.63;3.53;;;;;;;11.06;67.09;101019.22;5074896;28;20205;-77
2024/01/24 10:30:40;;;;;;;15.77;4.57;;;;;;;11.31;67.69;101016.28;5074322;28;20227;-77
2024/01/24 10:33:11;;;;;;;14.47;4.40;;;;;;;11.26;67.38;101013.75;5074682;28;20268;-76
2024/01/24 10:35:38;;;;;;;15.30;3.43;;;;;;;11.01;66.64;101034.06;5074382;28;20291;-77
2024/01/24 10:38:05;;;;;;;12.33;4.03;;;;;;;11.04;66.76;101038.38;5074526;28;20240;-77
2024/01/24 10:40:33;;;;;;;12.43;4.10;;;;;;;11.20;67.28;101037.34;5074195;28;20259;-76
2024/01/24 10:43:08;;;;;;;16.00;4.10;;;;;;;11.24;66.92;101053.88;5074177;28;20321;-76
2024/01/24 10:45:35;;;;;;;13.90;3.90;;;;;;;11.11;67.02;101037.44;5074236;28;20208;-77
2024/01/24 10:48:02;;;;;;;12.23;3.60;;;;;;;11.06;66.17;101052.28;5074124;28;20259;-77
2024/01/24 10:50:31;;;;;;;11.23;3.20;;;;;;;11.27;66.69;101064.25;5072018;28;20676;-76
2024/01/24 10:52:59;;;;;;;14.70;3.73;;;;;;;11.17;66.04;101057.41;5081203;28;20223;-77
2024/01/24 10:55:26;;;;;;;15.33;4.00;;;;;;;11.12;65.73;101083.63;5094064;28;20585;-76
2024/01/24 10:57:54;;;;;;;15.80;4.17;;;;;;;10.99;66.48;101089.84;5084842;28;20639;-76
2024/01/24 11:00:22;;;;;;;14.57;4.75;;;;;;;11.16;65.33;101105.31;5072320;28;20430;-77
2024/01/24 11:02:49;;;;;;;10.90;4.30;;;;;;;11.07;64.54;101122.81;5073918;28;20598;-77
2024/01/24 11:05:20;;;;;;;19.70;3.40;;;;;;;11.05;63.79;101115.91;5073851;28;20200;-75
2024/01/24 11:07:55;;;;;;;19.97;4.10;;;;;;;11.13;66.37;101114.94;5074078;28;20209;-77
2024/01/24 11:10:27;;;;;;;18.67;4.47;;;;;;;10.99;65.83;101136.84;5073743;28;20209;-77
2024/01/24 11:12:55;;;;;;;14.80;4.23;;;;;;;11.02;65.92;101075.00;5073289;28;20319;-76
2024/01/24 11:15:22;;;;;;;14.80;5.07;;;;;;;11.13;66.36;101094.03;5079812;28;20230;-76
2024/01/24 11:18:18;;;;;;;21.13;5.23;;;;;;;10.98;66.54;101094.22;5093923;28;20200;-76
2024/01/24 11:20:48;;;;;;;15.70;4.00;;;;;;;10.75;66.43;101078.75;5093569;28;20603;-77
2024/01/24 11:23:34;;;;;;;17.10;4.40;;;;;;;11.09;67.40;101068.81;5093039;28;20228;-76